Time;durP1;ratioP1;P1;durP2;ratioP2;P2;SDS_P1;SDS_P2;PMS_P1;PMS_P2;Temp;Humidity;BMP_temperature;BMP_pressure;BME280_temperature;BME280_humidity;BME280_pressure;Samples;Min_cycle;Max_cycle;Signal;HPM_P1;HPM_P2
2022/11/25 00:02:17;;;;;;;7.43;5.97;;;;;;;5.85;nan;99435.56;6088888;23;20180;-84
2022/11/25 00:04:42;;;;;;;12.07;6.23;;;;;;;5.79;nan;99427.19;6091951;23;20582;-83
2022/11/25 00:07:11;;;;;;;6.20;5.30;;;;;;;5.70;nan;99431.06;6092223;23;20196;-84
2022/11/25 00:09:36;;;;;;;10.32;6.43;;;;;;;5.61;nan;99434.94;6090480;23;20188;-84
2022/11/25 00:12:02;;;;;;;11.70;6.30;;;;;;;5.55;nan;99428.25;6063414;23;20164;-84
2022/11/25 00:14:27;;;;;;;7.50;5.33;;;;;;;5.55;nan;99436.06;6065328;23;20260;-84
2022/11/25 00:16:52;;;;;;;9.30;5.33;;;;;;;5.60;nan;99437.63;6092846;23;20392;-83
2022/11/25 00:19:18;;;;;;;12.33;6.00;;;;;;;5.63;nan;99437.47;6096336;23;20199;-84
2022/11/25 00:21:44;;;;;;;7.03;4.90;;;;;;;5.64;nan;99440.00;6102083;23;20188;-83
2022/11/25 00:24:13;;;;;;;6.37;4.70;;;;;;;5.67;nan;99450.31;6103205;23;20161;-85
2022/11/25 00:26:38;;;;;;;8.25;6.47;;;;;;;5.67;nan;99447.69;6074200;23;20618;-83
2022/11/25 00:29:13;;;;;;;8.50;5.63;;;;;;;5.64;nan;99432.19;6077923;23;20184;-83
2022/11/25 00:31:39;;;;;;;10.77;6.32;;;;;;;5.61;nan;99421.06;6068629;23;20156;-83
2022/11/25 00:34:06;;;;;;;12.38;7.95;;;;;;;5.56;nan;99416.06;6065725;23;20157;-84
2022/11/25 00:36:34;;;;;;;8.73;6.15;;;;;;;5.52;nan;99431.00;6090599;23;20161;-83
2022/11/25 00:39:10;;;;;;;6.40;5.20;;;;;;;5.51;nan;99431.91;6068607;23;20192;-82
2022/11/25 00:44:36;;;;;;;6.40;4.70;;;;;;;5.36;nan;99431.75;6106619;23;20161;-83
2022/11/25 00:47:03;;;;;;;8.63;4.43;;;;;;;5.23;nan;99434.91;6105491;23;20188;-83
2022/11/25 00:49:29;;;;;;;6.13;5.10;;;;;;;5.19;nan;99424.72;6072559;23;20185;-83
2022/11/25 00:51:55;;;;;;;9.70;5.17;;;;;;;5.18;nan;99420.41;6063391;23;20163;-83
2022/11/25 00:54:20;;;;;;;9.43;5.70;;;;;;;5.20;nan;99424.63;6096899;23;20224;-83
2022/11/25 00:56:46;;;;;;;5.37;4.43;;;;;;;5.22;nan;99415.00;6090557;23;20164;-83
2022/11/25 00:59:11;;;;;;;8.50;3.97;;;;;;;5.23;nan;99413.22;6067176;23;20279;-83
2022/11/25 01:01:38;;;;;;;7.63;5.37;;;;;;;5.26;nan;99407.88;5856129;23;5001231;-84
2022/11/25 01:04:07;;;;;;;6.40;5.32;;;;;;;5.27;nan;99401.78;6073203;23;20160;-84
2022/11/25 01:06:34;;;;;;;8.50;4.13;;;;;;;5.29;nan;99394.72;6094002;23;20164;-83
2022/11/25 01:09:00;;;;;;;6.20;3.92;;;;;;;5.33;nan;99391.91;6066910;23;20196;-85
2022/11/25 01:11:26;;;;;;;5.22;4.72;;;;;;;5.41;nan;99390.72;6066309;23;20496;-84
2022/11/25 01:13:55;;;;;;;5.25;4.75;;;;;;;5.49;nan;99409.47;6092924;23;20176;-84
2022/11/25 01:16:22;;;;;;;5.63;3.83;;;;;;;5.57;nan;99409.94;6093575;23;20200;-84
2022/11/25 01:18:50;;;;;;;6.75;4.53;;;;;;;5.64;nan;99413.09;6071151;23;20163;-84
2022/11/25 01:21:22;;;;;;;6.88;3.95;;;;;;;5.68;nan;99409.44;6071394;23;20156;-84
2022/11/25 01:23:48;;;;;;;4.18;3.78;;;;;;;5.67;nan;99407.75;6066484;23;20168;-84
2022/11/25 01:26:21;;;;;;;10.63;4.30;;;;;;;5.65;nan;99413.03;6068663;23;20192;-84
2022/11/25 01:28:48;;;;;;;7.38;4.63;;;;;;;5.62;nan;99413.19;6062677;23;20546;-85
2022/11/25 01:31:19;;;;;;;9.35;3.55;;;;;;;5.53;nan;99411.81;6060574;23;20157;-84
2022/11/25 01:33:57;;;;;;;7.28;4.05;;;;;;;5.49;nan;99406.84;6063967;23;20566;-84
2022/11/25 01:36:23;;;;;;;6.82;3.95;;;;;;;5.47;nan;99409.50;6066860;23;20603;-84
2022/11/25 01:38:52;;;;;;;6.40;4.55;;;;;;;5.48;nan;99398.19;6088787;23;20719;-83
2022/11/25 01:41:19;;;;;;;7.22;3.83;;;;;;;5.48;nan;99392.13;6063566;23;20183;-83
2022/11/25 01:44:01;;;;;;;6.28;4.20;;;;;;;5.51;nan;99402.41;6062442;23;20509;-83
2022/11/25 01:46:49;;;;;;;5.97;3.70;;;;;;;5.53;nan;99401.41;6065555;23;20174;-84
2022/11/25 01:49:26;;;;;;;8.88;3.50;;;;;;;5.57;nan;99404.72;6023326;23;20188;-84
2022/11/25 01:52:00;;;;;;;4.15;3.20;;;;;;;5.63;nan;99407.06;6087624;23;20196;-84
2022/11/25 01:54:29;;;;;;;5.03;3.03;;;;;;;5.69;nan;99406.75;6091655;23;20235;-83
2022/11/25 01:57:02;;;;;;;6.60;3.85;;;;;;;5.75;nan;99408.22;6090769;23;20257;-84
2022/11/25 01:59:32;;;;;;;5.13;2.28;;;;;;;5.78;nan;99408.09;6088795;23;20207;-84
2022/11/25 02:01:59;;;;;;;4.30;3.25;;;;;;;5.80;nan;99406.25;6088481;23;20164;-84
2022/11/25 02:04:31;;;;;;;4.63;4.10;;;;;;;5.83;nan;99405.25;6089254;23;20404;-84
2022/11/25 02:07:02;;;;;;;4.38;3.25;;;;;;;5.84;nan;99407.81;6061470;23;20184;-84
2022/11/25 02:09:29;;;;;;;4.68;3.75;;;;;;;5.86;nan;99418.16;6066244;23;20184;-83
2022/11/25 02:11:55;;;;;;;8.73;3.55;;;;;;;5.86;nan;99412.94;6063309;23;20231;-84
2022/11/25 02:14:22;;;;;;;4.20;2.70;;;;;;;5.84;nan;99426.06;6062914;23;20157;-84
2022/11/25 02:16:50;;;;;;;5.25;3.10;;;;;;;5.82;nan;99420.06;6090295;23;20160;-84
2022/11/25 02:19:25;;;;;;;4.37;3.10;;;;;;;5.82;nan;99422.66;6062431;23;20801;-84
2022/11/25 02:21:58;;;;;;;5.07;3.13;;;;;;;5.79;nan;99415.00;6065100;23;20216;-83
2022/11/25 02:24:41;;;;;;;4.30;3.20;;;;;;;5.76;nan;99415.16;6073530;23;20204;-84
2022/11/25 02:27:06;;;;;;;3.65;2.70;;;;;;;5.73;nan;99410.91;6086772;23;20928;-84
2022/11/25 02:29:32;;;;;;;7.90;3.20;;;;;;;5.68;nan;99404.25;6079771;23;20226;-84
2022/11/25 02:31:58;;;;;;;7.73;3.83;;;;;;;5.63;nan;99403.59;6112350;23;20157;-83
2022/11/25 02:34:24;;;;;;;3.47;2.47;;;;;;;5.57;nan;99406.50;6088005;23;20373;-84
2022/11/25 02:36:50;;;;;;;6.70;3.80;;;;;;;5.56;nan;99400.41;6108819;23;20377;-84
2022/11/25 02:39:18;;;;;;;3.70;3.20;;;;;;;5.54;nan;99407.50;6065395;23;20176;-83
2022/11/25 02:41:48;;;;;;;6.28;4.30;;;;;;;5.55;nan;99404.78;6062874;23;20801;-82
2022/11/25 02:44:14;;;;;;;5.20;3.13;;;;;;;5.55;nan;99407.41;6061727;23;20405;-83
2022/11/25 02:46:39;;;;;;;5.90;3.53;;;;;;;5.58;nan;99397.75;6087950;23;20191;-82
2022/11/25 02:49:05;;;;;;;6.70;4.43;;;;;;;5.63;nan;99406.22;6084963;23;20195;-82
2022/11/25 02:51:31;;;;;;;4.93;3.30;;;;;;;5.66;nan;99396.47;6059965;23;20191;-84
2022/11/25 02:53:59;;;;;;;7.57;3.88;;;;;;;5.70;nan;99390.22;6067794;23;20203;-83
2022/11/25 02:56:29;;;;;;;4.40;4.00;;;;;;;5.70;nan;99390.22;6063046;23;20548;-83
2022/11/25 02:58:55;;;;;;;4.43;3.22;;;;;;;5.69;nan;99390.28;6060748;23;20171;-83
2022/11/25 03:01:22;;;;;;;6.85;3.97;;;;;;;5.66;nan;99385.22;6061797;23;20183;-83
2022/11/25 03:03:48;;;;;;;9.70;4.23;;;;;;;5.64;nan;99387.88;6062828;23;20235;-84
2022/11/25 03:06:14;;;;;;;6.10;3.93;;;;;;;5.62;nan;99391.50;6063445;23;20403;-84
2022/11/25 03:08:40;;;;;;;5.20;3.73;;;;;;;5.55;nan;99381.34;6064229;23;20436;-82
2022/11/25 03:11:08;;;;;;;6.32;3.78;;;;;;;5.51;nan;99386.78;6063287;23;20389;-83
2022/11/25 03:13:34;;;;;;;6.93;4.03;;;;;;;5.50;nan;99385.09;6064052;23;20353;-83
2022/11/25 03:15:59;;;;;;;4.07;3.70;;;;;;;5.48;nan;99384.31;6064615;23;20171;-84
2022/11/25 03:18:25;;;;;;;5.10;3.80;;;;;;;5.48;nan;99381.69;6064232;23;20153;-84
2022/11/25 03:20:52;;;;;;;4.80;4.17;;;;;;;5.48;nan;99385.19;6066187;23;20173;-84
2022/11/25 03:23:18;;;;;;;4.93;3.10;;;;;;;5.47;nan;99386.06;6063513;23;20504;-87
2022/11/25 03:25:44;;;;;;;4.43;3.70;;;;;;;5.49;nan;99389.47;6062217;23;20187;-83
2022/11/25 03:28:09;;;;;;;4.33;3.47;;;;;;;5.54;nan;99387.47;6063910;23;20484;-82
2022/11/25 03:30:35;;;;;;;6.93;3.47;;;;;;;5.59;nan;99387.28;6050023;23;20460;-85
2022/11/25 03:33:02;;;;;;;4.18;3.33;;;;;;;5.64;nan;99389.66;6070677;23;20706;-85
2022/11/25 03:35:28;;;;;;;4.40;4.07;;;;;;;5.68;nan;99384.22;6056170;23;20235;-85
2022/11/25 03:37:54;;;;;;;8.40;3.00;;;;;;;5.70;nan;99386.78;6060972;23;20161;-85
2022/11/25 03:40:19;;;;;;;8.80;4.80;;;;;;;5.71;nan;99388.44;6075840;23;20191;-85
2022/11/25 03:42:45;;;;;;;5.57;3.70;;;;;;;5.70;nan;99392.81;6089584;23;20191;-85
2022/11/25 03:45:13;;;;;;;5.38;3.72;;;;;;;5.69;nan;99388.50;6066564;23;20198;-85
2022/11/25 03:47:40;;;;;;;5.28;3.80;;;;;;;5.72;nan;99390.13;6089453;23;20193;-85
2022/11/25 03:50:06;;;;;;;5.13;3.50;;;;;;;5.77;nan;99394.19;6087324;23;20530;-85
2022/11/25 03:52:32;;;;;;;4.00;3.25;;;;;;;5.80;nan;99397.59;6020830;23;20601;-85
2022/11/25 03:54:57;;;;;;;5.50;3.27;;;;;;;5.82;nan;99396.59;6056299;23;20192;-85
2022/11/25 03:57:27;;;;;;;6.45;3.45;;;;;;;5.85;nan;99387.78;6033371;23;20497;-85
2022/11/25 03:59:53;;;;;;;7.00;3.50;;;;;;;5.87;nan;99386.81;6030696;23;20182;-85
2022/11/25 04:02:18;;;;;;;5.20;3.33;;;;;;;5.87;nan;99385.97;6030861;23;20394;-85
2022/11/25 04:04:44;;;;;;;10.60;6.20;;;;;;;5.89;nan;99381.53;6030779;23;20793;-85
2022/11/25 04:07:09;;;;;;;14.53;10.10;;;;;;;5.89;nan;99381.53;6031789;23;20173;-84
2022/11/25 04:09:35;;;;;;;10.47;7.00;;;;;;;5.87;nan;99373.78;6053689;23;20425;-84
2022/11/25 04:14:52;;;;;;;4.32;3.85;;;;;;;5.92;nan;99379.63;6056674;23;20351;-85
2022/11/25 04:17:17;;;;;;;5.60;4.33;;;;;;;5.94;nan;99375.22;6030603;23;20485;-85
2022/11/25 04:19:43;;;;;;;7.43;3.80;;;;;;;5.96;nan;99372.50;6029713;23;20181;-85
2022/11/25 04:22:09;;;;;;;6.55;3.65;;;;;;;5.98;nan;99371.53;6031201;23;20651;-85
2022/11/25 04:24:38;;;;;;;6.97;3.80;;;;;;;6.01;nan;99370.53;6030933;23;20178;-85
2022/11/25 04:27:04;;;;;;;6.22;3.17;;;;;;;6.03;nan;99366.09;6030313;23;20225;-85
2022/11/25 04:29:29;;;;;;;4.37;3.17;;;;;;;6.04;nan;99359.09;6032145;23;20205;-86
2022/11/25 04:31:56;;;;;;;5.78;3.83;;;;;;;6.02;nan;99358.31;6031506;23;20166;-85
2022/11/25 04:34:21;;;;;;;6.53;3.90;;;;;;;6.03;nan;99363.47;6056094;23;20164;-85
2022/11/25 04:36:48;;;;;;;5.55;4.25;;;;;;;6.03;nan;99353.06;6030201;23;20165;-85
2022/11/25 04:39:14;;;;;;;5.73;4.03;;;;;;;6.01;nan;99354.03;6029992;23;20650;-85
2022/11/25 04:41:40;;;;;;;5.17;3.73;;;;;;;6.00;nan;99358.41;6028947;23;20405;-85
2022/11/25 04:44:05;;;;;;;6.23;3.37;;;;;;;5.98;nan;99358.47;6027865;23;20212;-85
2022/11/25 04:46:41;;;;;;;7.03;3.77;;;;;;;6.00;nan;99368.84;6029421;23;20169;-85
2022/11/25 04:49:08;;;;;;;7.80;5.25;;;;;;;6.02;nan;99368.75;6031232;23;20612;-85
2022/11/25 04:51:34;;;;;;;10.65;6.18;;;;;;;6.03;nan;99383.50;6055649;23;20169;-85
2022/11/25 04:54:02;;;;;;;8.95;6.82;;;;;;;6.02;nan;99387.00;6029996;23;20193;-85
2022/11/25 04:56:28;;;;;;;17.53;7.40;;;;;;;6.02;nan;99384.41;6030446;23;20169;-85
2022/11/25 05:01:42;;;;;;;5.05;3.75;;;;;;;6.01;nan;99396.59;6032212;23;20157;-84
2022/11/25 05:04:45;;;;;;;6.20;3.80;;;;;;;6.01;nan;99401.81;6048272;23;20165;-85
2022/11/25 05:07:14;;;;;;;5.10;3.55;;;;;;;6.03;nan;99407.81;6030347;23;20248;-84
2022/11/25 05:09:42;;;;;;;5.38;3.50;;;;;;;6.08;nan;99412.81;6030929;23;20483;-85
2022/11/25 05:12:21;;;;;;;8.68;5.20;;;;;;;6.10;nan;99416.16;6031740;23;20153;-85
2022/11/25 05:14:48;;;;;;;4.72;4.20;;;;;;;6.09;nan;99425.75;6031068;23;20169;-85
2022/11/25 05:17:17;;;;;;;7.57;4.90;;;;;;;6.11;nan;99429.13;6033003;23;20623;-83
2022/11/25 05:19:44;;;;;;;12.10;7.78;;;;;;;6.14;nan;99425.53;6047439;23;20189;-84
2022/11/25 05:22:16;;;;;;;7.80;5.68;;;;;;;6.16;nan;99426.31;6047990;23;20153;-83
2022/11/25 05:24:43;;;;;;;8.43;7.55;;;;;;;6.19;nan;99431.38;6049949;23;20176;-84
2022/11/25 05:27:10;;;;;;;13.75;7.40;;;;;;;6.22;nan;99430.38;6075206;23;20213;-84
2022/11/25 05:29:36;;;;;;;7.10;5.15;;;;;;;6.23;nan;99445.94;6075282;23;20304;-83
2022/11/25 05:32:04;;;;;;;6.00;4.45;;;;;;;6.27;nan;99442.28;6048435;23;20161;-84
2022/11/25 05:34:29;;;;;;;13.15;5.28;;;;;;;6.31;nan;99446.41;6071535;23;20172;-84
2022/11/25 05:36:55;;;;;;;11.77;5.07;;;;;;;6.32;nan;99450.75;6047749;23;20169;-84
2022/11/25 05:39:21;;;;;;;12.15;6.25;;;;;;;6.33;nan;99452.41;6045428;23;20505;-83
2022/11/25 05:42:06;;;;;;;7.40;4.80;;;;;;;6.33;nan;99452.41;6074256;23;20237;-84
2022/11/25 05:44:32;;;;;;;8.95;5.10;;;;;;;6.36;nan;99456.63;6075560;23;20217;-83
2022/11/25 05:46:57;;;;;;;4.90;3.93;;;;;;;6.35;nan;99452.34;6052077;23;20185;-85
2022/11/25 05:49:22;;;;;;;5.37;3.80;;;;;;;6.34;nan;99461.91;6038899;23;20565;-85
2022/11/25 05:51:49;;;;;;;4.80;3.53;;;;;;;6.34;nan;99456.69;6059548;23;20219;-86
2022/11/25 05:54:15;;;;;;;5.70;3.67;;;;;;;6.32;nan;99461.16;6037636;23;20170;-85
2022/11/25 05:56:40;;;;;;;5.50;3.50;;;;;;;6.32;nan;99458.56;6038571;23;20436;-85
2022/11/25 05:59:30;;;;;;;4.75;4.25;;;;;;;6.30;nan;99455.19;6044801;23;20192;-85
2022/11/25 06:02:03;;;;;;;5.22;3.63;;;;;;;6.31;nan;99464.69;6040339;23;20655;-86
2022/11/25 06:04:29;;;;;;;13.02;7.10;;;;;;;6.34;nan;99459.31;6062903;23;20172;-86
2022/11/25 06:06:54;;;;;;;5.30;4.00;;;;;;;6.38;nan;99463.47;6037297;23;20188;-86
2022/11/25 06:09:21;;;;;;;6.40;5.05;;;;;;;6.42;nan;99472.81;6061534;23;20181;-85
2022/11/25 06:11:47;;;;;;;8.25;5.85;;;;;;;6.47;nan;99472.59;6038222;23;20177;-85
2022/11/25 06:14:16;;;;;;;7.20;5.27;;;;;;;6.49;nan;99475.16;6038873;23;20161;-85
2022/11/25 06:16:42;;;;;;;7.40;4.80;;;;;;;6.51;nan;99483.72;6044703;23;20223;-85
2022/11/25 06:19:21;;;;;;;5.68;4.22;;;;;;;6.53;nan;99474.91;6059917;23;20265;-85
2022/11/25 06:21:47;;;;;;;5.33;4.40;;;;;;;6.56;nan;99485.22;6062349;23;20181;-85
2022/11/25 06:24:13;;;;;;;6.60;4.90;;;;;;;6.60;nan;99485.91;6029361;23;20248;-85
2022/11/25 06:26:41;;;;;;;5.60;4.18;;;;;;;6.60;nan;99478.06;6031585;23;20244;-85
2022/11/25 06:29:06;;;;;;;6.53;5.20;;;;;;;6.60;nan;99478.91;6028984;23;20188;-85
2022/11/25 06:31:32;;;;;;;9.50;3.90;;;;;;;6.59;nan;99471.19;6032846;23;20193;-85
2022/11/25 06:34:12;;;;;;;4.70;4.03;;;;;;;6.57;nan;99476.47;6032642;23;20424;-85
2022/11/25 06:36:39;;;;;;;7.35;4.28;;;;;;;6.59;nan;99481.63;6054399;23;20255;-85
2022/11/25 06:39:04;;;;;;;6.93;3.60;;;;;;;6.61;nan;99487.59;6057893;23;20184;-86
2022/11/25 06:41:30;;;;;;;5.67;4.07;;;;;;;6.64;nan;99487.44;6061562;23;21015;-86
2022/11/25 06:43:55;;;;;;;7.80;2.87;;;;;;;6.67;nan;99489.03;6058081;23;20161;-85
2022/11/25 06:46:20;;;;;;;5.50;3.97;;;;;;;6.71;nan;99501.03;6062482;23;20168;-85
2022/11/25 06:48:46;;;;;;;11.40;4.20;;;;;;;6.72;nan;99498.34;6033948;23;20189;-85
2022/11/25 06:51:13;;;;;;;15.80;4.47;;;;;;;6.72;nan;99497.50;6036945;23;20240;-86
2022/11/25 06:53:39;;;;;;;5.30;2.83;;;;;;;6.74;nan;99500.88;6069009;23;20161;-85
2022/11/25 06:56:10;;;;;;;29.40;12.18;;;;;;;6.76;nan;99509.50;6066790;23;20153;-86
2022/11/25 06:58:37;;;;;;;41.28;16.00;;;;;;;6.77;nan;99498.94;6065823;23;20184;-86
2022/11/25 07:01:05;;;;;;;8.38;4.95;;;;;;;6.81;nan;99508.34;6067401;23;20201;-86
2022/11/25 07:03:31;;;;;;;5.70;3.45;;;;;;;6.83;nan;99508.25;6067583;23;20185;-85
2022/11/25 07:05:58;;;;;;;5.60;3.93;;;;;;;6.85;nan;99514.25;6070668;23;20160;-86
2022/11/25 07:08:25;;;;;;;10.32;4.88;;;;;;;6.91;nan;99518.31;6071221;23;20200;-86
2022/11/25 07:10:50;;;;;;;6.82;4.30;;;;;;;6.96;nan;99516.31;6067713;23;20188;-85
2022/11/25 07:13:16;;;;;;;6.47;5.47;;;;;;;7.02;nan;99516.88;6071194;23;20161;-86
2022/11/25 07:15:41;;;;;;;6.10;3.60;;;;;;;7.08;nan;99526.16;6069374;23;20414;-85
2022/11/25 07:18:07;;;;;;;5.60;3.57;;;;;;;7.12;nan;99532.91;6065661;23;20192;-85
2022/11/25 07:20:32;;;;;;;8.20;3.60;;;;;;;7.19;nan;99549.13;6068297;23;20174;-85
2022/11/25 07:22:58;;;;;;;4.73;2.73;;;;;;;7.23;nan;99538.41;6072002;23;20173;-86
2022/11/25 07:25:23;;;;;;;3.20;2.90;;;;;;;7.25;nan;99546.19;6075197;23;20172;-86
2022/11/25 07:27:49;;;;;;;9.53;3.23;;;;;;;7.27;nan;99553.03;6073492;23;20218;-86
2022/11/25 07:30:14;;;;;;;9.17;4.47;;;;;;;7.25;nan;99544.41;6072789;23;20197;-86
2022/11/25 07:32:40;;;;;;;18.90;8.97;;;;;;;7.25;nan;99547.03;6070157;23;20167;-86
2022/11/25 07:35:06;;;;;;;8.97;5.10;;;;;;;7.26;nan;99553.97;6061496;23;20168;-85
2022/11/25 07:37:31;;;;;;;7.57;5.00;;;;;;;7.27;nan;99549.59;6066332;23;20821;-86
2022/11/25 07:39:56;;;;;;;4.80;3.83;;;;;;;7.28;nan;99553.88;6064979;23;20802;-85
2022/11/25 07:42:22;;;;;;;5.13;3.73;;;;;;;7.27;nan;99566.09;6063434;23;20474;-85
2022/11/25 07:44:48;;;;;;;5.63;4.00;;;;;;;7.28;nan;99570.38;6055635;23;20205;-86
2022/11/25 07:47:45;;;;;;;5.30;3.85;;;;;;;7.27;nan;99573.94;6039300;23;20197;-86
2022/11/25 07:50:11;;;;;;;9.60;5.73;;;;;;;7.30;nan;99584.22;6055460;23;20232;-86
2022/11/25 07:52:38;;;;;;;12.50;7.70;;;;;;;7.30;nan;99584.22;6054842;23;20169;-86
2022/11/25 07:55:04;;;;;;;11.18;6.25;;;;;;;7.30;nan;99594.69;6030417;23;20162;-86
2022/11/25 07:57:29;;;;;;;19.73;9.17;;;;;;;7.31;nan;99601.59;6036145;23;20172;-85
2022/11/25 07:59:55;;;;;;;7.47;5.43;;;;;;;7.35;nan;99604.91;6057758;23;20191;-86
2022/11/25 08:02:20;;;;;;;27.43;12.90;;;;;;;7.40;nan;99604.66;6062280;23;20173;-86
2022/11/25 08:04:45;;;;;;;10.97;8.37;;;;;;;7.46;nan;99612.19;6059803;23;20423;-86
2022/11/25 08:07:11;;;;;;;64.17;29.83;;;;;;;7.48;nan;99612.94;6057825;23;20213;-85
2022/11/25 08:09:36;;;;;;;9.30;7.20;;;;;;;7.50;nan;99621.56;6056396;23;20200;-86
2022/11/25 08:12:02;;;;;;;8.00;6.07;;;;;;;7.50;nan;99618.94;6056712;23;20157;-86
2022/11/25 08:14:27;;;;;;;15.80;8.70;;;;;;;7.50;nan;99613.72;6056309;23;20158;-86
2022/11/25 08:16:53;;;;;;;6.30;4.90;;;;;;;7.52;nan;99619.72;6062648;23;20558;-86
2022/11/25 08:19:18;;;;;;;12.00;8.10;;;;;;;7.53;nan;99624.00;6059662;23;20180;-86
2022/11/25 08:21:46;;;;;;;5.73;5.07;;;;;;;7.55;nan;99622.19;6033764;23;20205;-86
2022/11/25 08:24:18;;;;;;;14.43;7.30;;;;;;;7.56;nan;99620.41;6055824;23;20173;-85
2022/11/25 08:26:44;;;;;;;38.47;18.58;;;;;;;7.56;nan;99605.59;6054065;23;20781;-86
2022/11/25 08:29:12;;;;;;;24.80;12.57;;;;;;;7.56;nan;99608.19;6054764;23;20192;-86
2022/11/25 08:31:37;;;;;;;14.20;5.93;;;;;;;7.58;nan;99598.50;6054734;23;20386;-85
2022/11/25 08:34:05;;;;;;;9.53;5.77;;;;;;;7.60;nan;99604.50;6051565;23;20161;-85
2022/11/25 08:36:31;;;;;;;8.93;6.00;;;;;;;7.64;nan;99611.28;6052927;23;21061;-85
2022/11/25 08:38:58;;;;;;;17.92;8.32;;;;;;;7.71;nan;99610.00;6051340;23;20885;-85
2022/11/25 08:41:30;;;;;;;22.38;10.68;;;;;;;7.81;nan;99620.84;6049954;23;20279;-85
2022/11/25 08:43:58;;;;;;;16.38;11.57;;;;;;;7.92;nan;99612.44;6054094;23;20212;-85
2022/11/25 08:46:27;;;;;;;8.18;5.00;;;;;;;8.04;nan;99610.94;6057579;23;20165;-85
2022/11/25 08:48:54;;;;;;;11.20;5.35;;;;;;;8.14;nan;99622.59;6072424;23;20205;-85
2022/11/25 08:51:50;;;;;;;9.38;6.25;;;;;;;8.23;nan;99621.25;6057603;23;20224;-92
2022/11/25 08:54:21;;;;;;;7.82;4.60;;;;;;;8.32;nan;99616.38;6045496;23;20197;-92
2022/11/25 08:56:59;;;;;;;6.60;4.50;;;;;;;8.41;nan;99626.38;6057649;23;20164;-93
2022/11/25 08:59:30;;;;;;;5.65;4.72;;;;;;;8.51;nan;99628.50;6043997;23;20149;-92
2022/11/25 09:02:17;;;;;;;8.07;5.13;;;;;;;8.60;nan;99620.97;6047298;23;20149;-92
2022/11/25 09:04:45;;;;;;;12.10;7.60;;;;;;;8.71;nan;99630.03;6045722;23;20405;-93
2022/11/25 09:07:20;;;;;;;12.55;8.60;;;;;;;8.78;nan;99634.00;6042932;23;20170;-92
2022/11/25 09:09:48;;;;;;;10.75;7.38;;;;;;;8.83;nan;99639.78;6054632;23;20201;-91
2022/11/25 09:12:16;;;;;;;11.23;8.20;;;;;;;8.87;nan;99643.94;6046409;23;20197;-93
2022/11/25 09:14:44;;;;;;;11.73;6.97;;;;;;;8.91;nan;99640.25;6044943;23;20173;-93
2022/11/25 09:17:14;;;;;;;9.63;6.32;;;;;;;8.96;nan;99632.94;6042833;23;20161;-94
2022/11/25 09:20:04;;;;;;;;;;;;;;;;;;;;;
2022/11/25 09:22:31;;;;;;;9.23;5.10;;;;;;;9.17;nan;99630.03;6043308;23;20149;-94
2022/11/25 09:25:07;;;;;;;;;;;;;;;;;;;;;
2022/11/25 09:27:59;;;;;;;4.38;2.60;;;;;;;9.54;nan;99636.63;6038087;23;20268;-93
2022/11/25 09:30:55;;;;;;;;;;;;;;;;;;;;;
2022/11/25 09:33:44;;;;;;;3.40;2.78;;;;;;;10.01;nan;99635.53;6070537;23;20247;-87
2022/11/25 09:36:12;;;;;;;5.23;2.17;;;;;;;10.18;nan;99630.13;6085210;23;20161;-87
2022/11/25 09:38:39;;;;;;;3.10;1.60;;;;;;;10.35;nan;99628.25;5671500;23;10001315;-87
2022/11/25 09:47:25;;;;;;;4.13;1.42;;;;;;;11.05;nan;99631.63;6102641;23;20634;-87
2022/11/25 09:50:12;;;;;;;4.85;1.50;;;;;;;11.19;nan;99633.34;6104796;23;20156;-88
2022/11/25 09:52:52;;;;;;;1.42;1.25;;;;;;;11.29;nan;99621.28;6084878;23;20728;-87
2022/11/25 09:55:22;;;;;;;2.55;1.95;;;;;;;11.35;nan;99632.34;6085668;23;20251;-87
2022/11/25 09:58:28;;;;;;;5.97;2.10;;;;;;;11.38;nan;99640.03;6084077;23;20173;-87
2022/11/25 10:00:54;;;;;;;2.22;1.40;;;;;;;11.38;nan;99634.78;6049984;23;20230;-88
2022/11/25 10:03:36;;;;;;;2.20;1.80;;;;;;;11.37;nan;99646.22;6083960;23;20247;-88
2022/11/25 10:06:16;;;;;;;6.70;1.80;;;;;;;11.33;nan;99639.50;6084981;23;20164;-87
2022/11/25 10:08:46;;;;;;;6.05;1.75;;;;;;;11.31;nan;99639.59;6084450;23;20639;-88
2022/11/25 10:11:46;;;;;;;1.85;1.20;;;;;;;11.32;nan;99650.97;6087189;23;20185;-88
2022/11/25 10:14:44;;;;;;;2.17;1.15;;;;;;;11.28;nan;99648.50;6088800;23;20164;-88
2022/11/25 10:17:09;;;;;;;3.90;2.35;;;;;;;11.29;nan;99654.63;6086737;23;20153;-88
2022/11/25 10:19:50;;;;;;;4.13;2.00;;;;;;;11.29;nan;99660.72;6088199;23;20642;-88
2022/11/25 10:22:23;;;;;;;2.85;1.65;;;;;;;11.28;nan;99652.94;6085281;23;20195;-88
2022/11/25 10:24:52;;;;;;;4.75;2.10;;;;;;;11.24;nan;99652.31;6085803;23;20165;-88
2022/11/25 10:27:23;;;;;;;3.17;1.77;;;;;;;11.23;nan;99645.38;6081534;23;20200;-88
2022/11/25 10:29:58;;;;;;;2.83;1.77;;;;;;;11.22;nan;99654.19;6083057;23;20164;-88
2022/11/25 10:32:27;;;;;;;4.18;3.10;;;;;;;11.20;nan;99656.06;6081718;23;20206;-89
2022/11/25 10:34:58;;;;;;;9.43;6.28;;;;;;;11.19;nan;99653.56;6081084;23;21001;-87
2022/11/25 10:37:36;;;;;;;20.88;5.68;;;;;;;11.15;nan;99657.31;6079793;23;21065;-88
2022/11/25 10:40:02;;;;;;;3.78;2.75;;;;;;;11.13;nan;99653.97;6079235;23;20267;-88
2022/11/25 10:42:28;;;;;;;10.07;4.57;;;;;;;11.11;nan;99648.78;6079924;23;20204;-87
2022/11/25 10:44:54;;;;;;;3.70;1.90;;;;;;;11.08;nan;99659.50;6081268;23;20884;-86
2022/11/25 10:47:36;;;;;;;11.27;3.77;;;;;;;11.04;nan;99663.25;6080294;23;20447;-86
2022/11/25 10:50:23;;;;;;;4.78;1.70;;;;;;;11.03;nan;99666.84;6080179;23;20423;-86
2022/11/25 10:52:57;;;;;;;2.20;1.38;;;;;;;11.02;nan;99668.63;6081653;23;20203;-86
2022/11/25 10:55:31;;;;;;;2.75;2.47;;;;;;;11.03;nan;99674.72;6081631;23;20207;-87
2022/11/25 10:57:58;;;;;;;5.75;2.03;;;;;;;11.04;nan;99676.41;6079992;23;20520;-87
2022/11/25 11:00:32;;;;;;;8.25;5.30;;;;;;;11.06;nan;99670.09;6082126;23;20248;-88
2022/11/25 11:03:14;;;;;;;2.53;1.70;;;;;;;11.04;nan;99681.66;6080336;23;20558;-88
2022/11/25 11:05:48;;;;;;;4.32;2.05;;;;;;;11.04;nan;99692.19;6081840;23;20260;-88
2022/11/25 11:08:20;;;;;;;5.28;3.00;;;;;;;11.01;nan;99681.88;6083654;23;20230;-86
2022/11/25 11:11:06;;;;;;;3.30;2.25;;;;;;;10.99;nan;99681.09;6085195;23;20277;-86
2022/11/25 11:13:32;;;;;;;2.25;1.50;;;;;;;10.97;nan;99690.91;6084776;23;20258;-88
2022/11/25 11:15:58;;;;;;;4.00;2.40;;;;;;;10.97;nan;99683.84;6085812;23;20666;-84
2022/11/25 11:18:38;;;;;;;2.45;2.25;;;;;;;10.98;nan;99680.28;6086927;23;20436;-85
2022/11/25 11:21:06;;;;;;;2.10;1.50;;;;;;;10.99;nan;99683.75;6060317;23;20200;-85
2022/11/25 11:23:47;;;;;;;5.55;4.10;;;;;;;10.95;nan;99688.34;6083367;23;20176;-87
2022/11/25 11:26:23;;;;;;;4.72;2.28;;;;;;;10.98;nan;99682.06;6081838;23;20191;-85
2022/11/25 11:28:57;;;;;;;2.47;1.70;;;;;;;10.97;nan;99690.91;6083534;23;20194;-86
2022/11/25 11:31:27;;;;;;;3.10;1.80;;;;;;;11.01;nan;99689.75;6083252;23;20178;-87
2022/11/25 11:34:11;;;;;;;4.50;2.30;;;;;;;11.03;nan;99698.38;6083361;23;20370;-86
2022/11/25 11:37:18;;;;;;;3.60;2.05;;;;;;;11.06;nan;99703.44;6083970;23;20180;-87
2022/11/25 11:39:49;;;;;;;3.08;1.92;;;;;;;11.05;nan;99701.78;6062398;23;20179;-85
2022/11/25 11:42:50;;;;;;;3.47;2.00;;;;;;;11.07;nan;99713.88;6085709;23;20602;-88
2022/11/25 11:45:37;;;;;;;3.50;1.60;;;;;;;11.08;nan;99714.72;6020138;23;20544;-87
2022/11/25 11:48:37;;;;;;;2.95;1.60;;;;;;;11.11;nan;99714.50;6083368;23;20219;-88
2022/11/25 11:51:28;;;;;;;2.13;1.92;;;;;;;11.16;nan;99712.44;6064474;23;20271;-87
2022/11/25 11:54:14;;;;;;;2.20;1.85;;;;;;;11.21;nan;99712.16;6044707;23;20223;-88
2022/11/25 11:56:51;;;;;;;3.80;2.22;;;;;;;11.28;nan;99719.50;6058200;23;20179;-90
2022/11/25 11:59:23;;;;;;;2.95;2.05;;;;;;;11.32;nan;99721.97;6081992;23;20203;-88
2022/11/25 12:02:12;;;;;;;5.40;2.42;;;;;;;11.30;nan;99729.94;6084312;23;20673;-88
2022/11/25 12:04:44;;;;;;;4.20;3.00;;;;;;;11.29;nan;99730.91;6094541;23;20300;-88
2022/11/25 12:07:21;;;;;;;2.70;1.98;;;;;;;11.30;nan;99727.31;6083358;23;20710;-88
2022/11/25 12:09:58;;;;;;;4.78;2.35;;;;;;;11.27;nan;99730.97;6082793;23;20235;-89
2022/11/25 12:12:32;;;;;;;2.38;1.65;;;;;;;11.25;nan;99722.34;6057459;23;20258;-88
2022/11/25 12:15:11;;;;;;;2.55;1.70;;;;;;;11.26;nan;99723.19;6084555;23;20204;-88
2022/11/25 12:17:48;;;;;;;3.47;2.53;;;;;;;11.24;nan;99736.44;6083154;23;20258;-88
2022/11/25 12:20:25;;;;;;;3.33;1.75;;;;;;;11.25;nan;99743.38;6083165;23;20642;-89
2022/11/25 12:23:00;;;;;;;4.43;1.67;;;;;;;11.28;nan;99747.59;6084115;23;20179;-88
2022/11/25 12:25:31;;;;;;;3.10;1.80;;;;;;;11.29;nan;99744.88;6057043;23;20188;-88
2022/11/25 12:28:07;;;;;;;4.85;2.60;;;;;;;11.37;nan;99756.69;6056387;23;20199;-88
2022/11/25 12:31:10;;;;;;;3.03;2.22;;;;;;;11.46;nan;99756.09;6095433;23;20205;-88